createdAt,value
2022-11-04T00:00:28.499Z,98666.59
2022-11-04T00:02:57.545Z,98664.75
2022-11-04T00:05:25.150Z,98657.38
2022-11-04T00:08:10.139Z,98650.88
2022-11-04T00:10:56.572Z,98647.22
2022-11-04T00:13:24.105Z,98636.44
2022-11-04T00:16:09.263Z,98642.53
2022-11-04T00:18:37.115Z,98650.88
2022-11-04T00:21:22.137Z,98644.56
2022-11-04T00:24:07.540Z,98636.19
2022-11-04T00:26:54.016Z,98625.22
2022-11-04T00:29:21.640Z,98633.53
2022-11-04T00:32:03.177Z,98641.91
2022-11-04T00:34:30.719Z,98645.97
2022-11-04T00:36:58.487Z,98650.88
2022-11-04T00:39:27.121Z,98655.34
2022-11-04T00:41:57.149Z,98658.19
2022-11-04T00:44:24.926Z,98654.50
2022-11-04T00:46:52.501Z,98672.66
2022-11-04T00:49:20.065Z,98660.00
2022-11-04T00:51:47.633Z,98647.56
2022-11-04T00:54:15.405Z,98663.69
2022-11-04T00:56:43.439Z,98663.88
2022-11-04T00:59:14.550Z,98655.50
2022-11-04T01:01:43.752Z,98667.53
2022-11-04T01:04:11.832Z,98666.91
2022-11-04T01:06:39.836Z,98666.31
2022-11-04T01:09:09.381Z,98664.88
2022-11-04T01:11:36.951Z,98668.97
2022-11-04T01:14:04.507Z,98664.28
2022-11-04T01:16:33.630Z,98688.09
2022-11-04T01:19:02.674Z,98674.88
2022-11-04T01:21:30.216Z,98675.66
2022-11-04T01:23:57.842Z,98698.09
2022-11-04T01:26:27.421Z,98695.66
2022-11-04T01:28:56.634Z,98704.78
2022-11-04T01:31:27.121Z,98694.81
2022-11-04T01:33:56.801Z,98711.13
2022-11-04T01:36:25.617Z,98719.44
2022-11-04T01:38:53.257Z,98725.38
2022-11-04T01:41:22.726Z,98714.38
2022-11-04T01:43:52.750Z,98727.81
2022-11-04T01:46:28.959Z,98728.41
2022-11-04T01:49:04.024Z,98730.88
2022-11-04T01:51:36.014Z,98735.09
2022-11-04T01:54:06.148Z,98722.25
2022-11-04T01:56:35.015Z,98736.72
2022-11-04T01:59:09.983Z,98731.25
2022-11-04T02:01:37.955Z,98724.88
2022-11-04T02:04:25.057Z,98727.81
2022-11-04T02:06:55.521Z,98740.59
2022-11-04T02:09:25.095Z,98750.78
2022-11-04T02:12:10.468Z,98750.53
2022-11-04T02:14:38.336Z,98747.31
2022-11-04T02:17:18.313Z,98755.44
2022-11-04T02:20:09.663Z,98766.59
2022-11-04T02:22:59.886Z,98760.19
2022-11-04T02:26:03.187Z,98778.19
2022-11-04T02:28:52.208Z,98771.22
2022-11-04T02:31:28.717Z,98762.94
2022-11-04T02:34:06.475Z,98767.75
2022-11-04T02:36:43.049Z,98761.03
2022-11-04T02:39:21.684Z,98760.16
2022-11-04T02:41:57.559Z,98765.66
2022-11-04T02:44:31.627Z,98762.13
2022-11-04T02:47:04.548Z,98763.00
2022-11-04T02:49:39.388Z,98773.53
2022-11-04T02:52:09.647Z,98784.41
2022-11-04T02:54:43.166Z,98773.59
2022-11-04T02:57:15.147Z,98779.28
2022-11-04T02:59:47.557Z,98785.34
2022-11-04T03:02:23.671Z,98792.88
2022-11-04T03:04:53.513Z,98791.88
2022-11-04T03:07:25.289Z,98797.22
2022-11-04T03:09:57.559Z,98803.66
2022-11-04T03:12:29.852Z,98800.94
2022-11-04T03:15:03.880Z,98808.06
2022-11-04T03:17:36.706Z,98820.53
2022-11-04T03:20:08.592Z,98822.84
2022-11-04T03:22:38.724Z,98813.19
2022-11-04T03:25:09.053Z,98805.63
2022-11-04T03:27:46.977Z,98813.72
2022-11-04T03:33:02.102Z,98822.13
2022-11-04T03:35:30.062Z,98828.53
2022-11-04T03:37:58.933Z,98845.81
2022-11-04T03:40:28.077Z,98847.81
2022-11-04T03:43:00.265Z,98834.84
2022-11-04T03:45:28.492Z,98827.13
2022-11-04T03:47:57.933Z,98821.44
2022-11-04T03:50:35.018Z,98817.13
2022-11-04T03:53:02.620Z,98811.78
2022-11-04T03:55:39.649Z,98803.72
2022-11-04T03:58:16.185Z,98803.03
2022-11-04T04:00:50.736Z,98797.69
2022-11-04T04:03:26.456Z,98799.69
2022-11-04T04:05:56.757Z,98820.09
2022-11-04T04:08:35.400Z,98820.91
2022-11-04T04:11:10.609Z,98806.50
2022-11-04T04:13:45.952Z,98801.41
2022-11-04T04:16:20.075Z,98803.66
2022-11-04T04:18:57.550Z,98815.06
2022-11-04T04:21:30.880Z,98815.44
2022-11-04T04:24:18.336Z,98809.09
2022-11-04T04:27:05.149Z,98804.75
2022-11-04T04:29:33.485Z,98802.84
2022-11-04T04:32:03.041Z,98809.97
2022-11-04T04:34:34.178Z,98810.13
2022-11-04T04:37:04.548Z,98797.91
2022-11-04T04:39:55.348Z,98790.66
2022-11-04T04:42:40.840Z,98785.75
2022-11-04T04:45:09.976Z,98777.94
2022-11-04T04:47:42.832Z,98777.94
2022-11-04T04:50:13.980Z,98786.75
2022-11-04T04:52:44.062Z,98784.97
2022-11-04T04:55:12.867Z,98792.91
2022-11-04T04:57:40.520Z,98792.06
2022-11-04T05:00:10.480Z,98796.00
2022-11-04T05:02:38.204Z,98786.88
2022-11-04T05:05:07.041Z,98797.50
2022-11-04T05:07:36.033Z,98792.59
2022-11-04T05:10:03.835Z,98794.09
2022-11-04T05:12:52.001Z,98794.09
2022-11-04T05:15:19.571Z,98786.56
2022-11-04T05:17:47.164Z,98774.78
2022-11-04T05:20:14.839Z,98778.06
2022-11-04T05:22:43.735Z,98768.13
2022-11-04T05:25:11.496Z,98774.84
2022-11-04T05:27:39.145Z,98779.13
2022-11-04T05:30:08.429Z,98770.41
2022-11-04T05:32:36.219Z,98762.06
2022-11-04T05:35:04.291Z,98753.97
2022-11-04T05:37:32.908Z,98750.97
2022-11-04T05:40:01.850Z,98746.03
2022-11-04T05:42:30.472Z,98744.66
2022-11-04T05:44:58.025Z,98737.16
2022-11-04T05:47:25.586Z,98737.50
2022-11-04T05:49:53.224Z,98731.59
2022-11-04T05:52:20.795Z,98730.94
2022-11-04T05:54:48.405Z,98742.56
2022-11-04T05:57:17.324Z,98739.13
2022-11-04T05:59:46.008Z,98741.19
2022-11-04T06:02:13.783Z,98730.97
2022-11-04T06:04:41.784Z,98748.78
2022-11-04T06:07:10.335Z,98744.66
2022-11-04T06:09:41.047Z,98760.69
2022-11-04T06:12:11.275Z,98761.84
2022-11-04T06:14:40.169Z,98756.91
2022-11-04T06:17:08.002Z,98766.88
2022-11-04T06:19:35.634Z,98763.44
2022-11-04T06:22:04.107Z,98761.84
2022-11-04T06:24:31.650Z,98772.78
2022-11-04T06:26:59.325Z,98781.88
2022-11-04T06:29:26.913Z,98786.63
2022-11-04T06:31:55.847Z,98782.44
2022-11-04T06:34:23.423Z,98793.56
2022-11-04T06:36:51.180Z,98797.16
2022-11-04T06:39:18.749Z,98798.88
2022-11-04T06:41:50.434Z,98798.16
2022-11-04T06:44:19.540Z,98815.47
2022-11-04T06:46:47.271Z,98819.44
2022-11-04T06:49:18.724Z,98810.59
2022-11-04T06:51:46.757Z,98813.34
2022-11-04T06:54:15.359Z,98804.56
2022-11-04T06:56:43.422Z,98809.00
2022-11-04T06:59:16.151Z,98819.22
2022-11-04T07:01:44.036Z,98822.66
2022-11-04T07:04:11.640Z,98823.13
2022-11-04T07:06:44.280Z,98822.13
2022-11-04T07:09:14.103Z,98812.13
2022-11-04T07:11:42.946Z,98822.94
2022-11-04T07:14:10.988Z,98822.38
2022-11-04T07:16:38.631Z,98825.50
2022-11-04T07:19:06.351Z,98831.38
2022-11-04T07:21:34.092Z,98842.66
2022-11-04T07:24:03.436Z,98844.66
2022-11-04T07:26:31.065Z,98850.38
2022-11-04T07:29:00.801Z,98848.56
2022-11-04T07:31:28.999Z,98850.91
2022-11-04T07:33:57.569Z,98847.06
2022-11-04T07:36:25.219Z,98854.59
2022-11-04T07:38:52.879Z,98851.72
2022-11-04T07:41:22.897Z,98851.81
2022-11-04T07:43:53.029Z,98853.47
2022-11-04T07:46:21.681Z,98854.47
2022-11-04T07:48:49.246Z,98848.69
2022-11-04T07:51:21.079Z,98851.41
2022-11-04T07:53:48.879Z,98837.09
2022-11-04T07:56:16.495Z,98831.19
2022-11-04T07:58:46.532Z,98823.00
2022-11-04T08:01:16.193Z,98821.31
2022-11-04T08:03:44.042Z,98817.13
2022-11-04T08:06:13.840Z,98819.72
2022-11-04T08:08:43.439Z,98823.16
2022-11-04T08:11:17.067Z,98818.50
2022-11-04T08:13:48.697Z,98810.19
2022-11-04T08:16:18.277Z,98810.63
2022-11-04T08:18:46.713Z,98818.22
2022-11-04T08:21:15.054Z,98809.44
2022-11-04T08:23:42.917Z,98813.72
2022-11-04T08:26:11.794Z,98809.63
2022-11-04T08:28:39.675Z,98809.19
2022-11-04T08:31:11.799Z,98805.22
2022-11-04T08:33:40.754Z,98798.81
2022-11-04T08:36:10.541Z,98803.13
2022-11-04T08:38:39.810Z,98800.66
2022-11-04T08:41:10.376Z,98798.81
2022-11-04T08:43:38.373Z,98799.41
2022-11-04T08:46:10.377Z,98797.38
2022-11-04T08:48:39.356Z,98795.53
2022-11-04T08:51:12.098Z,98799.19
2022-11-04T08:53:39.684Z,98799.22
2022-11-04T08:56:12.162Z,98792.81
2022-11-04T08:58:39.771Z,98795.34
2022-11-04T09:01:10.780Z,98790.50
2022-11-04T09:03:39.380Z,98810.72
2022-11-04T09:06:10.693Z,98804.59
2022-11-04T09:08:40.042Z,98802.06
2022-11-04T09:11:09.113Z,98802.34
2022-11-04T09:13:39.690Z,98802.34
2022-11-04T09:16:10.905Z,98810.06
2022-11-04T09:18:38.509Z,98809.28
2022-11-04T09:21:08.219Z,98811.53
2022-11-04T09:23:35.881Z,98817.66
2022-11-04T09:26:08.693Z,98820.53
2022-11-04T09:28:36.606Z,98823.78
2022-11-04T09:31:10.107Z,98820.69
2022-11-04T09:33:37.707Z,98819.88
2022-11-04T09:36:06.024Z,98828.66
2022-11-04T09:38:35.081Z,98838.06
2022-11-04T09:41:02.842Z,98835.78
2022-11-04T09:43:51.462Z,98844.75
2022-11-04T09:46:21.692Z,98839.09
2022-11-04T09:48:53.656Z,98840.13
2022-11-04T09:51:48.008Z,98840.72
2022-11-04T09:54:17.670Z,98837.44
2022-11-04T09:56:49.924Z,98839.09
2022-11-04T09:59:22.474Z,98845.84
2022-11-04T10:02:02.982Z,98849.72
2022-11-04T10:04:45.577Z,98851.16
2022-11-04T10:07:24.503Z,98852.78
2022-11-04T10:10:02.812Z,98854.38
2022-11-04T10:12:56.963Z,98859.94
2022-11-04T10:15:39.404Z,98854.81
2022-11-04T10:18:22.555Z,98856.06
2022-11-04T10:20:57.976Z,98857.28
2022-11-04T10:23:33.927Z,98854.81
2022-11-04T10:26:10.533Z,98854.44
2022-11-04T10:28:43.401Z,98854.81
2022-11-04T10:31:15.283Z,98849.50
2022-11-04T10:33:48.274Z,98844.81
2022-11-04T10:36:17.956Z,98845.66
2022-11-04T10:38:48.654Z,98847.41
2022-11-04T10:41:28.417Z,98842.72
2022-11-04T10:44:02.928Z,98842.75
2022-11-04T10:46:45.789Z,98838.69
2022-11-04T10:49:37.453Z,98838.06
2022-11-04T10:52:07.467Z,98834.94
2022-11-04T10:54:41.109Z,98827.00
2022-11-04T10:57:10.883Z,98833.53
2022-11-04T10:59:49.565Z,98841.50
2022-11-04T11:02:17.867Z,98834.00
2022-11-04T11:04:47.810Z,98842.56
2022-11-04T11:07:22.677Z,98837.88
2022-11-04T11:09:54.629Z,98836.25
2022-11-04T11:12:50.080Z,98829.91
2022-11-04T11:15:35.003Z,98834.84
2022-11-04T11:18:15.335Z,98843.19
2022-11-04T11:20:50.064Z,98845.63
2022-11-04T11:23:36.438Z,98851.78
2022-11-04T11:26:05.497Z,98840.72
2022-11-04T11:28:37.952Z,98844.63
2022-11-04T11:31:13.084Z,98842.16
2022-11-04T11:33:49.176Z,98841.94
2022-11-04T11:36:22.948Z,98843.19
2022-11-04T11:39:04.026Z,98840.72
2022-11-04T11:41:33.498Z,98833.94
2022-11-04T11:44:05.736Z,98836.38
2022-11-04T11:46:35.235Z,98826.59
2022-11-04T11:49:05.089Z,98817.28
2022-11-04T11:51:35.740Z,98813.00
2022-11-04T11:54:24.314Z,98809.47
2022-11-04T12:02:42.813Z,98816.41
2022-11-04T12:11:10.724Z,98799.81
2022-11-04T12:13:43.181Z,98787.53
2022-11-04T12:16:22.736Z,98794.63
2022-11-04T12:19:20.766Z,98791.88
2022-11-04T12:21:55.485Z,98792.91
2022-11-04T12:24:35.441Z,98795.50
2022-11-04T12:27:13.778Z,98799.09
2022-11-04T12:29:56.042Z,98792.78
2022-11-04T12:32:33.687Z,98795.94
2022-11-04T12:35:16.959Z,98793.38
2022-11-04T12:37:58.527Z,98785.13
2022-11-04T12:40:30.388Z,98777.88
2022-11-04T12:43:13.866Z,98778.63
2022-11-04T12:45:52.858Z,98773.16
2022-11-04T12:48:52.999Z,98783.59
2022-11-04T12:51:33.469Z,98780.38
2022-11-04T12:54:27.809Z,98786.13
2022-11-04T12:57:11.847Z,98798.53
2022-11-04T12:59:54.304Z,98805.50
2022-11-04T13:02:25.895Z,98801.25
2022-11-04T13:05:01.832Z,98809.16
2022-11-04T13:07:32.269Z,98815.75
2022-11-04T13:10:04.746Z,98819.91
2022-11-04T13:12:39.044Z,98813.84
2022-11-04T13:15:17.131Z,98815.59
2022-11-04T13:17:46.487Z,98833.00
2022-11-04T13:20:28.536Z,98832.41
2022-11-04T13:23:03.401Z,98845.34
2022-11-04T13:25:40.434Z,98848.00
2022-11-04T13:28:13.194Z,98848.03
2022-11-04T13:30:48.624Z,98851.31
2022-11-04T13:33:26.787Z,98853.16
2022-11-04T13:36:02.123Z,98852.47
2022-11-04T13:38:33.779Z,98861.06
2022-11-04T13:41:21.318Z,98863.13
2022-11-04T13:43:54.139Z,98861.09
2022-11-04T13:46:30.533Z,98871.72
2022-11-04T13:49:05.692Z,98867.22
2022-11-04T13:51:44.545Z,98877.19
2022-11-04T13:54:27.627Z,98875.78
2022-11-04T13:57:06.551Z,98875.09
2022-11-04T13:59:36.802Z,98885.06
2022-11-04T14:02:39.660Z,98889.88
2022-11-04T14:05:53.156Z,98891.03
2022-11-04T14:08:21.529Z,98895.59
2022-11-04T14:11:08.965Z,98894.19
2022-11-04T14:13:47.652Z,98901.81
2022-11-04T14:16:44.145Z,98904.25
2022-11-04T14:19:57.774Z,98910.59
2022-11-04T14:22:49.504Z,98906.91
2022-11-04T14:25:24.844Z,98917.94
2022-11-04T14:27:54.998Z,98912.81
2022-11-04T14:30:45.607Z,98917.53
2022-11-04T14:33:28.140Z,98921.09
2022-11-04T14:35:58.189Z,98928.03
2022-11-04T14:38:29.731Z,98923.53
2022-11-04T14:41:22.327Z,98931.16
2022-11-04T14:43:51.035Z,98917.91
2022-11-04T14:46:24.276Z,98925.44
2022-11-04T14:48:55.952Z,98921.75
2022-11-04T14:51:27.659Z,98927.50
2022-11-04T14:54:01.417Z,98923.09
2022-11-04T14:56:28.978Z,98924.41
2022-11-04T14:59:01.430Z,98922.75
2022-11-04T15:01:35.022Z,98929.28
2022-11-04T15:04:15.069Z,98927.69
2022-11-04T15:06:58.455Z,98923.63
2022-11-04T15:09:28.557Z,98929.72
2022-11-04T15:12:24.507Z,98936.72
2022-11-04T15:14:52.346Z,98936.50
2022-11-04T15:17:22.932Z,98944.72
2022-11-04T15:19:54.636Z,98949.63
2022-11-04T15:22:23.173Z,98951.03
2022-11-04T15:24:51.559Z,98955.53
2022-11-04T15:27:21.335Z,98957.59
2022-11-04T15:29:55.408Z,98965.75
2022-11-04T15:32:23.925Z,98962.81
2022-11-04T15:34:54.633Z,98974.75
2022-11-04T15:37:23.565Z,98973.25
2022-11-04T15:39:53.763Z,98974.50
2022-11-04T15:42:43.027Z,98980.41
2022-11-04T15:45:35.892Z,98989.63
2022-11-04T15:48:29.728Z,98991.25
2022-11-04T15:51:19.685Z,98984.06
2022-11-04T15:53:54.537Z,98987.69
2022-11-04T15:56:25.876Z,98987.47
2022-11-04T15:58:55.617Z,98994.53
2022-11-04T16:01:23.974Z,98995.66
2022-11-04T16:03:54.121Z,99007.09
2022-11-04T16:06:36.809Z,99001.56
2022-11-04T16:09:18.426Z,99014.25
2022-11-04T16:12:08.773Z,99012.91
2022-11-04T16:14:36.578Z,99017.63
2022-11-04T16:17:04.334Z,99019.75
2022-11-04T16:19:32.814Z,99023.66
2022-11-04T16:22:05.743Z,99018.63
2022-11-04T16:24:35.799Z,99019.22
2022-11-04T16:27:03.449Z,99030.84
2022-11-04T16:29:32.671Z,99022.31
2022-11-04T16:32:17.883Z,99034.59
2022-11-04T16:34:46.219Z,99035.91
2022-11-04T16:37:15.111Z,99044.28
2022-11-04T16:39:45.012Z,99046.31
2022-11-04T16:42:14.497Z,99048.19
2022-11-04T16:44:47.856Z,99046.13
2022-11-04T16:47:15.502Z,99052.94
2022-11-04T16:49:43.055Z,99055.34
2022-11-04T16:52:16.665Z,99065.41
2022-11-04T16:54:44.197Z,99063.28
2022-11-04T16:57:14.626Z,99071.38
2022-11-04T16:59:42.587Z,99070.50
2022-11-04T17:02:20.161Z,99075.84
2022-11-04T17:04:47.975Z,99077.50
2022-11-04T17:07:16.819Z,99080.53
2022-11-04T17:09:44.456Z,99085.63
2022-11-04T17:12:11.962Z,99088.16
2022-11-04T17:14:39.840Z,99091.19
2022-11-04T17:17:09.448Z,99096.16
2022-11-04T17:19:37.015Z,99094.44
2022-11-04T17:22:07.884Z,99093.44
2022-11-04T17:24:37.463Z,99094.44
2022-11-04T17:27:06.362Z,99099.72
2022-11-04T17:29:36.039Z,99099.84
2022-11-04T17:32:03.598Z,99103.38
2022-11-04T17:34:31.126Z,99096.66
2022-11-04T17:36:58.683Z,99101.44
2022-11-04T17:39:26.200Z,99104.66
2022-11-04T17:42:12.624Z,99109.59
2022-11-04T17:44:40.229Z,99114.69
2022-11-04T17:47:07.986Z,99114.59
2022-11-04T17:49:37.996Z,99116.97
2022-11-04T17:52:05.911Z,99125.38
2022-11-04T17:54:33.484Z,99129.53
2022-11-04T17:57:02.402Z,99133.56
2022-11-04T17:59:35.379Z,99141.41
2022-11-04T18:02:04.321Z,99139.13
2022-11-04T18:04:32.054Z,99143.06
2022-11-04T18:07:02.817Z,99143.06
2022-11-04T18:09:31.026Z,99144.25
2022-11-04T18:12:16.149Z,99144.25
2022-11-04T18:14:45.050Z,99154.72
2022-11-04T18:17:12.612Z,99156.00
2022-11-04T18:19:40.371Z,99156.72
2022-11-04T18:22:07.946Z,99160.66
2022-11-04T18:24:35.992Z,99156.72
2022-11-04T18:27:03.653Z,99163.84
2022-11-04T18:29:31.666Z,99165.50
2022-11-04T18:32:01.256Z,99160.19
2022-11-04T18:34:28.980Z,99168.94
2022-11-04T18:36:58.271Z,99168.97
2022-11-04T18:39:26.141Z,99172.50
2022-11-04T18:41:53.741Z,99171.59
2022-11-04T18:44:24.124Z,99178.59
2022-11-04T18:46:51.715Z,99179.44
2022-11-04T18:49:21.092Z,99184.22
2022-11-04T18:51:48.680Z,99193.53
2022-11-04T18:54:16.452Z,99199.94
2022-11-04T18:56:44.007Z,99200.91
2022-11-04T18:59:12.819Z,99205.22
2022-11-04T19:01:40.557Z,99209.06
2022-11-04T19:04:09.651Z,99209.63
2022-11-04T19:06:42.643Z,99213.09
2022-11-04T19:09:44.896Z,99213.91
2022-11-04T19:12:18.395Z,99213.19
2022-11-04T19:14:45.953Z,99211.44
2022-11-04T19:17:13.615Z,99218.00
2022-11-04T19:19:41.540Z,99227.13
2022-11-04T19:22:11.091Z,99219.81
2022-11-04T19:24:39.463Z,99219.09
2022-11-04T19:27:07.337Z,99225.22
2022-11-04T19:29:34.941Z,99223.50
2022-11-04T19:32:02.693Z,99228.50
2022-11-04T19:34:30.473Z,99232.88
2022-11-04T19:36:58.368Z,99234.16
2022-11-04T19:39:27.868Z,99245.53
2022-11-04T19:42:12.940Z,99237.44
2022-11-04T19:44:41.244Z,99249.84
2022-11-04T19:47:09.396Z,99257.31
2022-11-04T19:49:39.107Z,99257.78
2022-11-04T19:52:06.781Z,99261.03
2022-11-04T19:54:35.872Z,99266.59
2022-11-04T19:57:03.578Z,99265.09
2022-11-04T19:59:31.408Z,99268.63
2022-11-04T20:01:59.309Z,99274.47
2022-11-04T20:04:27.132Z,99276.53
2022-11-04T20:06:54.829Z,99282.56
2022-11-04T20:09:22.609Z,99281.22
2022-11-04T20:12:14.157Z,99290.16
2022-11-04T20:14:42.412Z,99291.22
2022-11-04T20:17:10.096Z,99295.06
2022-11-04T20:19:37.811Z,99303.63
2022-11-04T20:22:05.787Z,99299.97
2022-11-04T20:24:33.562Z,99304.81
2022-11-04T20:27:02.693Z,99313.06
2022-11-04T20:29:30.429Z,99310.91
2022-11-04T20:31:58.366Z,99312.63
2022-11-04T20:34:31.673Z,99323.44
2022-11-04T20:37:00.411Z,99321.94
2022-11-04T20:39:28.076Z,99323.50
2022-11-04T20:41:55.780Z,99332.06
2022-11-04T20:44:24.845Z,99333.72
2022-11-04T20:46:52.744Z,99339.47
2022-11-04T20:49:20.596Z,99332.00
2022-11-04T20:51:54.857Z,99336.28
2022-11-04T20:54:23.327Z,99334.00
2022-11-04T20:56:50.985Z,99345.59
2022-11-04T20:59:18.753Z,99338.31
2022-11-04T21:01:50.254Z,99341.47
2022-11-04T21:04:20.354Z,99349.50
2022-11-04T21:06:48.960Z,99354.50
2022-11-04T21:09:18.330Z,99359.16
2022-11-04T21:11:45.888Z,99363.16
2022-11-04T21:14:16.158Z,99367.16
2022-11-04T21:16:44.340Z,99375.09
2022-11-04T21:19:14.451Z,99376.25
2022-11-04T21:21:43.071Z,99376.13
2022-11-04T21:24:13.224Z,99383.72
2022-11-04T21:26:40.967Z,99385.16
2022-11-04T21:29:12.668Z,99395.97
2022-11-04T21:31:41.084Z,99390.66
2022-11-04T21:34:08.821Z,99395.88
2022-11-04T21:36:37.991Z,99394.72
2022-11-04T21:39:06.168Z,99389.97
2022-11-04T21:41:37.103Z,99393.44
2022-11-04T21:44:08.179Z,99398.06
2022-11-04T21:46:36.808Z,99406.16
2022-11-04T21:49:04.878Z,99405.16
2022-11-04T21:51:36.001Z,99412.78
2022-11-04T21:54:07.891Z,99418.38
2022-11-04T21:56:36.313Z,99415.56
2022-11-04T21:59:04.608Z,99419.50
2022-11-04T22:01:32.780Z,99420.66
2022-11-04T22:04:01.963Z,99421.16
2022-11-04T22:06:34.556Z,99423.63
2022-11-04T22:09:03.530Z,99422.44
2022-11-04T22:11:34.064Z,99425.44
2022-11-04T22:14:03.808Z,99423.31
2022-11-04T22:16:33.576Z,99427.19
2022-11-04T22:19:02.713Z,99428.53
2022-11-04T22:21:32.252Z,99429.84
2022-11-04T22:24:00.807Z,99433.69
2022-11-04T22:26:30.758Z,99431.69
2022-11-04T22:29:00.658Z,99429.91
2022-11-04T22:31:30.471Z,99431.25
2022-11-04T22:33:59.492Z,99437.69
2022-11-04T22:36:27.364Z,99447.38
2022-11-04T22:38:55.820Z,99441.94
2022-11-04T22:41:25.532Z,99443.34
2022-11-04T22:43:53.091Z,99452.84
2022-11-04T22:46:25.205Z,99452.25
2022-11-04T22:48:52.904Z,99447.31
2022-11-04T22:51:20.885Z,99452.38
2022-11-04T22:53:56.107Z,99452.75
2022-11-04T22:56:25.622Z,99448.59
2022-11-04T22:58:54.083Z,99458.31
2022-11-04T23:01:25.851Z,99463.31
2022-11-04T23:03:53.884Z,99451.97
2022-11-04T23:06:21.511Z,99461.66
2022-11-04T23:08:49.164Z,99455.16
2022-11-04T23:11:36.293Z,99461.47
2022-11-04T23:14:21.367Z,99455.69
2022-11-04T23:17:09.802Z,99462.19
2022-11-04T23:19:38.349Z,99462.53
2022-11-04T23:22:24.086Z,99462.41
2022-11-04T23:25:07.181Z,99473.63
2022-11-04T23:27:53.132Z,99472.13
2022-11-04T23:30:25.419Z,99470.16
2022-11-04T23:32:56.670Z,99472.25
2022-11-04T23:35:43.780Z,99473.78
2022-11-04T23:38:11.630Z,99482.69
2022-11-04T23:40:39.966Z,99486.63
2022-11-04T23:43:06.978Z,99483.66
2022-11-04T23:45:52.204Z,99479.75
2022-11-04T23:48:38.767Z,99488.81
2022-11-04T23:51:24.335Z,99491.53
2022-11-04T23:54:09.484Z,99492.66
2022-11-04T23:56:54.797Z,99487.00
2022-11-04T23:59:39.822Z,99486.03
